createdAt,value
2018-08-31T00:00:29.548Z,87.45
2018-08-31T00:02:58.243Z,87.87
2018-08-31T00:05:48.215Z,87.96
2018-08-31T00:09:28.334Z,88.13
2018-08-31T00:12:39.348Z,88.31
2018-08-31T00:15:08.451Z,89.15
2018-08-31T00:17:38.249Z,88.93
2018-08-31T00:20:06.922Z,89.03
2018-08-31T00:22:35.502Z,88.88
2018-08-31T00:25:24.269Z,89.26
2018-08-31T00:28:04.077Z,89.46
2018-08-31T00:30:43.823Z,89.73
2018-08-31T00:33:29.640Z,89.97
2018-08-31T00:38:14.246Z,90.13
2018-08-31T00:45:00.900Z,90.66
2018-08-31T00:47:29.571Z,91.37
2018-08-31T00:49:58.157Z,91.18
2018-08-31T00:52:26.740Z,91.51
2018-08-31T00:54:55.336Z,91.79
2018-08-31T00:57:23.934Z,91.92
2018-08-31T00:59:52.530Z,92.28
2018-08-31T01:02:21.131Z,92.35
2018-08-31T01:04:49.714Z,92.14
2018-08-31T01:07:18.305Z,92.16
2018-08-31T01:09:46.865Z,92.03
2018-08-31T01:12:15.445Z,91.88
2018-08-31T01:14:44.020Z,92.32
2018-08-31T01:17:12.628Z,92.34
2018-08-31T01:19:41.230Z,92.76
2018-08-31T01:22:09.873Z,93.07
2018-08-31T01:24:38.475Z,93.10
2018-08-31T01:27:07.089Z,93.34
2018-08-31T01:29:35.666Z,93.89
2018-08-31T01:32:04.422Z,94.00
2018-08-31T01:34:33.010Z,94.15
2018-08-31T01:37:01.623Z,94.37
2018-08-31T01:39:30.250Z,94.32
2018-08-31T01:41:58.841Z,94.80
2018-08-31T01:44:27.446Z,94.96
2018-08-31T01:46:56.090Z,94.99
2018-08-31T01:49:24.706Z,95.36
2018-08-31T01:51:53.344Z,95.32
2018-08-31T01:54:21.999Z,95.40
2018-08-31T01:56:50.625Z,95.29
2018-08-31T01:59:19.377Z,95.57
2018-08-31T02:01:48.091Z,95.71
2018-08-31T02:04:16.740Z,95.82
2018-08-31T02:06:45.370Z,95.82
2018-08-31T02:09:17.921Z,96.06
2018-08-31T02:11:46.960Z,96.31
2018-08-31T02:14:15.555Z,96.20
2018-08-31T02:16:44.129Z,96.16
2018-08-31T02:19:12.775Z,96.18
2018-08-31T02:21:41.405Z,96.18
2018-08-31T02:24:10.148Z,96.34
2018-08-31T02:26:38.749Z,96.15
2018-08-31T02:29:07.398Z,96.31
2018-08-31T02:31:36.031Z,96.33
2018-08-31T02:34:04.650Z,96.29
2018-08-31T02:36:33.241Z,96.36
2018-08-31T02:39:01.913Z,96.32
2018-08-31T02:41:30.503Z,96.62
2018-08-31T02:43:59.110Z,96.44
2018-08-31T02:46:27.714Z,96.61
2018-08-31T02:48:56.336Z,96.56
2018-08-31T02:51:24.951Z,96.46
2018-08-31T02:53:53.560Z,96.71
2018-08-31T02:56:22.161Z,96.60
2018-08-31T02:58:50.784Z,96.41
2018-08-31T03:01:19.381Z,96.53
2018-08-31T03:03:48.000Z,96.39
2018-08-31T03:06:16.593Z,96.51
2018-08-31T03:08:45.233Z,96.57
2018-08-31T03:11:13.878Z,96.99
2018-08-31T03:13:42.470Z,96.71
2018-08-31T03:16:11.051Z,96.99
2018-08-31T03:18:39.679Z,97.28
2018-08-31T03:21:08.347Z,96.96
2018-08-31T03:23:36.957Z,97.29
2018-08-31T03:26:05.580Z,97.07
2018-08-31T03:28:34.177Z,97.42
2018-08-31T03:31:02.833Z,97.64
2018-08-31T03:33:31.423Z,97.59
2018-08-31T03:36:00.102Z,97.71
2018-08-31T03:38:28.712Z,97.67
2018-08-31T03:40:57.316Z,97.87
2018-08-31T03:43:25.900Z,97.82
2018-08-31T03:45:54.514Z,97.92
2018-08-31T03:48:23.105Z,98.19
2018-08-31T03:50:51.717Z,98.22
2018-08-31T03:53:20.335Z,98.21
2018-08-31T03:55:48.939Z,98.01
2018-08-31T03:58:17.563Z,98.09
2018-08-31T04:00:46.177Z,98.19
2018-08-31T04:03:14.793Z,98.16
2018-08-31T04:05:43.433Z,98.17
2018-08-31T04:08:12.029Z,97.92
2018-08-31T04:10:40.631Z,97.64
2018-08-31T04:13:09.244Z,97.65
2018-08-31T04:15:37.848Z,97.84
2018-08-31T04:18:06.488Z,97.67
2018-08-31T04:20:35.122Z,97.88
2018-08-31T04:23:03.709Z,97.65
2018-08-31T04:25:32.319Z,97.46
2018-08-31T04:28:01.023Z,97.65
2018-08-31T04:30:29.787Z,97.62
2018-08-31T04:32:58.375Z,97.76
2018-08-31T04:35:26.982Z,97.70
2018-08-31T04:37:55.558Z,97.64
2018-08-31T04:40:24.205Z,97.69
2018-08-31T04:42:52.911Z,97.63
2018-08-31T04:45:21.521Z,97.73
2018-08-31T04:47:50.102Z,97.92
2018-08-31T04:50:18.771Z,97.93
2018-08-31T04:52:47.338Z,97.66
2018-08-31T04:55:15.945Z,97.86
2018-08-31T04:57:44.528Z,97.78
2018-08-31T05:00:13.118Z,97.28
2018-08-31T05:02:41.717Z,96.99
2018-08-31T05:05:10.337Z,96.95
2018-08-31T05:07:38.921Z,96.95
2018-08-31T05:10:07.533Z,97.20
2018-08-31T05:12:36.136Z,97.03
2018-08-31T05:15:04.968Z,96.96
2018-08-31T05:17:33.549Z,97.16
2018-08-31T05:20:02.149Z,96.96
2018-08-31T05:22:30.758Z,96.69
2018-08-31T05:24:59.364Z,96.42
2018-08-31T05:27:28.001Z,96.14
2018-08-31T05:29:56.612Z,96.18
2018-08-31T05:32:25.233Z,96.05
2018-08-31T05:34:53.825Z,96.13
2018-08-31T05:37:22.431Z,95.89
2018-08-31T05:39:51.020Z,95.43
2018-08-31T05:42:19.627Z,94.70
2018-08-31T05:44:48.204Z,94.65
2018-08-31T05:47:16.844Z,94.11
2018-08-31T05:49:45.436Z,93.92
2018-08-31T05:52:14.108Z,93.78
2018-08-31T05:54:42.700Z,93.64
2018-08-31T05:57:11.313Z,93.42
2018-08-31T05:59:39.896Z,92.79
2018-08-31T06:02:08.613Z,92.04
2018-08-31T06:04:37.529Z,90.99
2018-08-31T06:07:06.169Z,90.54
2018-08-31T06:09:34.754Z,91.15
2018-08-31T06:12:03.426Z,90.39
2018-08-31T06:14:32.001Z,90.72
2018-08-31T06:17:00.619Z,91.27
2018-08-31T06:19:29.203Z,90.24
2018-08-31T06:21:57.800Z,91.02
2018-08-31T06:24:26.390Z,90.01
2018-08-31T06:26:55.121Z,90.46
2018-08-31T06:29:23.717Z,90.86
2018-08-31T06:31:52.305Z,90.19
2018-08-31T06:34:20.933Z,90.39
2018-08-31T06:36:49.553Z,90.25
2018-08-31T06:39:18.130Z,90.36
2018-08-31T06:41:46.761Z,89.88
2018-08-31T06:44:15.358Z,90.08
2018-08-31T06:46:43.958Z,89.94
2018-08-31T06:49:12.563Z,89.98
2018-08-31T06:51:41.193Z,90.74
2018-08-31T06:54:09.829Z,90.10
2018-08-31T06:56:38.433Z,89.08
2018-08-31T06:59:07.406Z,89.34
2018-08-31T07:01:36.068Z,87.94
2018-08-31T07:04:04.714Z,87.76
2018-08-31T07:06:33.306Z,88.46
2018-08-31T07:09:01.900Z,87.38
2018-08-31T07:11:30.497Z,86.61
2018-08-31T07:13:59.099Z,86.21
2018-08-31T07:16:27.674Z,85.89
2018-08-31T07:18:56.251Z,86.02
2018-08-31T07:21:24.898Z,85.77
2018-08-31T07:23:53.719Z,85.67
2018-08-31T07:26:22.364Z,85.03
2018-08-31T07:28:50.908Z,85.12
2018-08-31T07:31:19.510Z,85.39
2018-08-31T07:33:48.223Z,84.89
2018-08-31T07:36:16.905Z,84.34
2018-08-31T07:38:45.500Z,84.70
2018-08-31T07:41:14.098Z,84.14
2018-08-31T07:43:42.723Z,83.54
2018-08-31T07:46:11.313Z,82.58
2018-08-31T07:48:39.938Z,82.99
2018-08-31T07:51:08.566Z,83.59
2018-08-31T07:53:37.188Z,80.91
2018-08-31T07:56:05.902Z,81.35
2018-08-31T07:58:34.514Z,81.42
2018-08-31T08:01:03.089Z,80.92
2018-08-31T08:03:31.700Z,81.15
2018-08-31T08:06:00.286Z,78.96
2018-08-31T08:08:28.897Z,80.06
2018-08-31T08:10:57.497Z,78.39
2018-08-31T08:13:26.106Z,79.78
2018-08-31T08:15:54.725Z,77.86
2018-08-31T08:18:23.337Z,76.62
2018-08-31T08:20:51.945Z,77.91
2018-08-31T08:23:20.613Z,77.61
2018-08-31T08:25:49.208Z,76.76
2018-08-31T08:28:17.826Z,78.83
2018-08-31T08:30:46.445Z,74.22
2018-08-31T08:33:15.081Z,75.10
2018-08-31T08:35:43.666Z,74.53
2018-08-31T08:38:12.292Z,73.73
2018-08-31T08:40:40.893Z,72.80
2018-08-31T08:43:09.519Z,74.18
2018-08-31T08:45:38.120Z,73.46
2018-08-31T08:48:06.795Z,71.88
2018-08-31T08:50:35.422Z,72.81
2018-08-31T08:53:04.236Z,71.96
2018-08-31T08:55:32.868Z,71.78
2018-08-31T08:58:01.488Z,72.28
2018-08-31T09:00:30.109Z,73.41
2018-08-31T09:02:58.728Z,71.32
2018-08-31T09:05:27.360Z,73.24
2018-08-31T09:07:55.979Z,72.04
2018-08-31T09:10:24.576Z,70.83
2018-08-31T09:12:53.185Z,70.64
2018-08-31T09:15:21.786Z,69.10
2018-08-31T09:17:51.621Z,66.89
2018-08-31T09:20:20.287Z,69.84
2018-08-31T09:22:48.893Z,69.20
2018-08-31T09:25:17.475Z,66.25
2018-08-31T09:27:46.096Z,68.85
2018-08-31T09:30:19.783Z,67.89
2018-08-31T09:32:48.426Z,71.21
2018-08-31T09:35:17.152Z,70.99
2018-08-31T09:37:45.774Z,68.36
2018-08-31T09:40:14.360Z,66.08
2018-08-31T09:42:42.921Z,67.76
2018-08-31T09:45:11.516Z,67.27
2018-08-31T09:47:40.081Z,68.82
2018-08-31T09:50:08.836Z,66.53
2018-08-31T09:52:37.410Z,67.21
2018-08-31T09:55:06.369Z,66.91
2018-08-31T09:57:35.074Z,66.18
2018-08-31T10:00:03.620Z,64.01
2018-08-31T10:02:38.237Z,66.65
2018-08-31T10:05:07.831Z,65.55
2018-08-31T10:07:36.453Z,61.00
2018-08-31T10:10:05.319Z,61.89
2018-08-31T10:12:33.920Z,63.66
2018-08-31T10:15:02.503Z,63.89
2018-08-31T10:17:31.133Z,64.84
2018-08-31T10:19:59.728Z,68.71
2018-08-31T10:22:28.293Z,66.00
2018-08-31T10:24:56.892Z,63.02
2018-08-31T10:27:25.453Z,63.66
2018-08-31T10:29:54.046Z,63.76
2018-08-31T10:32:22.637Z,65.30
2018-08-31T10:34:51.235Z,66.12
2018-08-31T10:37:19.813Z,66.25
2018-08-31T10:39:48.423Z,68.52
2018-08-31T10:42:16.986Z,66.28
2018-08-31T10:44:45.570Z,65.68
2018-08-31T10:47:14.145Z,64.06
2018-08-31T10:49:42.724Z,63.57
2018-08-31T10:52:11.349Z,62.51
2018-08-31T10:54:40.001Z,66.00
2018-08-31T10:57:08.587Z,65.85
2018-08-31T10:59:37.202Z,64.50
2018-08-31T11:02:05.814Z,62.66
2018-08-31T11:04:34.524Z,61.68
2018-08-31T11:07:03.143Z,58.86
2018-08-31T11:09:31.751Z,59.29
2018-08-31T11:12:00.325Z,59.89
2018-08-31T11:14:28.900Z,57.79
2018-08-31T11:16:57.467Z,59.09
2018-08-31T11:19:26.066Z,58.15
2018-08-31T11:21:54.631Z,57.34
2018-08-31T11:24:23.242Z,57.19
2018-08-31T11:26:51.832Z,57.39
2018-08-31T11:29:20.436Z,58.79
2018-08-31T11:31:49.010Z,59.33
2018-08-31T11:34:17.643Z,56.47
2018-08-31T11:36:46.227Z,59.14
2018-08-31T11:39:14.824Z,60.98
2018-08-31T11:41:43.427Z,61.37
2018-08-31T11:44:12.024Z,59.67
2018-08-31T11:46:40.620Z,60.21
2018-08-31T11:49:09.226Z,59.16
2018-08-31T11:51:37.823Z,57.05
2018-08-31T11:54:06.464Z,60.39
2018-08-31T11:56:35.080Z,60.02
2018-08-31T11:59:03.686Z,58.52
2018-08-31T12:01:32.431Z,57.58
2018-08-31T12:04:01.145Z,58.76
2018-08-31T12:06:29.781Z,57.68
2018-08-31T12:08:58.363Z,57.01
2018-08-31T12:11:26.968Z,57.07
2018-08-31T12:13:55.869Z,57.95
2018-08-31T12:16:24.465Z,60.26
2018-08-31T12:18:53.066Z,58.74
2018-08-31T12:21:21.658Z,59.33
2018-08-31T12:23:50.258Z,56.92
2018-08-31T12:26:18.876Z,57.83
2018-08-31T12:28:48.275Z,55.62
2018-08-31T12:31:16.942Z,54.59
2018-08-31T12:33:45.514Z,54.31
2018-08-31T12:36:14.121Z,52.97
2018-08-31T12:38:42.748Z,54.33
2018-08-31T12:41:11.356Z,53.74
2018-08-31T12:43:39.995Z,52.11
2018-08-31T12:46:08.605Z,51.77
2018-08-31T12:48:37.227Z,50.80
2018-08-31T12:51:05.837Z,52.77
2018-08-31T12:53:34.425Z,54.02
2018-08-31T12:56:03.026Z,54.97
2018-08-31T12:58:31.638Z,54.05
2018-08-31T13:01:00.260Z,53.49
2018-08-31T13:03:28.821Z,52.57
2018-08-31T13:05:57.420Z,52.32
2018-08-31T13:08:26.010Z,52.01
2018-08-31T13:10:54.610Z,52.79
2018-08-31T13:13:23.431Z,53.15
2018-08-31T13:15:52.021Z,52.33
2018-08-31T13:18:20.626Z,52.29
2018-08-31T13:20:49.271Z,54.82
2018-08-31T13:23:17.923Z,55.69
2018-08-31T13:25:46.517Z,55.45
2018-08-31T13:28:15.136Z,54.22
2018-08-31T13:30:43.892Z,54.08
2018-08-31T13:33:12.487Z,54.02
2018-08-31T13:35:41.099Z,52.51
2018-08-31T13:38:09.726Z,50.69
2018-08-31T13:40:38.333Z,53.51
2018-08-31T13:43:07.081Z,53.59
2018-08-31T13:45:35.698Z,55.00
2018-08-31T13:48:04.290Z,54.17
2018-08-31T13:50:32.871Z,52.80
2018-08-31T13:53:01.464Z,53.66
2018-08-31T13:55:30.039Z,53.56
2018-08-31T13:57:58.645Z,52.67
2018-08-31T14:00:27.201Z,52.67
2018-08-31T14:02:55.805Z,52.84
2018-08-31T14:05:24.395Z,50.85
2018-08-31T14:07:52.989Z,52.99
2018-08-31T14:10:21.572Z,54.25
2018-08-31T14:12:50.242Z,52.19
2018-08-31T14:15:18.788Z,49.55
2018-08-31T14:17:47.382Z,49.39
2018-08-31T14:20:16.006Z,51.78
2018-08-31T14:22:44.624Z,49.84
2018-08-31T14:25:13.212Z,51.71
2018-08-31T14:27:41.785Z,49.46
2018-08-31T14:30:10.379Z,51.32
2018-08-31T14:32:38.959Z,51.17
2018-08-31T14:35:07.528Z,51.74
2018-08-31T14:37:36.120Z,49.68
2018-08-31T14:40:04.892Z,54.02
2018-08-31T14:42:33.457Z,53.02
2018-08-31T14:45:02.071Z,52.92
2018-08-31T14:47:30.725Z,52.88
2018-08-31T14:49:59.378Z,53.19
2018-08-31T14:52:27.958Z,52.62
2018-08-31T14:54:56.512Z,51.71
2018-08-31T14:57:25.126Z,54.71
2018-08-31T14:59:53.694Z,52.21
2018-08-31T15:02:22.292Z,50.79
2018-08-31T15:04:50.866Z,51.05
2018-08-31T15:07:19.450Z,50.31
2018-08-31T15:09:48.162Z,50.46
2018-08-31T15:12:16.778Z,51.53
2018-08-31T15:14:45.401Z,50.21
2018-08-31T15:17:13.958Z,52.07
2018-08-31T15:19:42.528Z,52.17
2018-08-31T15:22:11.140Z,52.16
2018-08-31T15:24:39.739Z,52.83
2018-08-31T15:27:08.349Z,53.33
2018-08-31T15:29:36.926Z,53.29
2018-08-31T15:32:05.628Z,52.10
2018-08-31T15:34:34.340Z,52.23
2018-08-31T15:37:02.920Z,53.80
2018-08-31T15:39:31.533Z,53.18
2018-08-31T15:42:00.121Z,53.71
2018-08-31T15:44:28.761Z,51.67
2018-08-31T15:46:57.356Z,50.92
2018-08-31T15:49:26.006Z,50.97
2018-08-31T15:51:54.580Z,51.52
2018-08-31T15:54:23.182Z,52.32
2018-08-31T15:56:51.759Z,52.06
2018-08-31T15:59:20.366Z,51.66
2018-08-31T16:01:48.948Z,50.50
2018-08-31T16:04:17.563Z,51.39
2018-08-31T16:06:46.154Z,51.07
2018-08-31T16:09:14.859Z,51.93
2018-08-31T16:11:43.407Z,52.07
2018-08-31T16:14:12.021Z,52.15
2018-08-31T16:16:40.621Z,52.21
2018-08-31T16:19:09.266Z,51.95
2018-08-31T16:21:37.928Z,53.33
2018-08-31T16:24:06.546Z,52.29
2018-08-31T16:26:35.165Z,51.99
2018-08-31T16:29:03.871Z,51.54
2018-08-31T16:31:32.363Z,52.83
2018-08-31T16:34:00.955Z,51.58
2018-08-31T16:36:29.530Z,52.20
2018-08-31T16:38:58.211Z,54.05
2018-08-31T16:41:26.776Z,52.54
2018-08-31T16:43:55.362Z,53.83
2018-08-31T16:46:23.942Z,56.29
2018-08-31T16:48:52.569Z,55.87
2018-08-31T16:51:21.154Z,56.56
2018-08-31T16:53:49.761Z,58.18
2018-08-31T16:56:18.339Z,59.43
2018-08-31T16:58:46.929Z,59.57
2018-08-31T17:01:15.534Z,61.26
2018-08-31T17:03:44.193Z,62.03
2018-08-31T17:06:13.083Z,62.62
2018-08-31T17:08:41.699Z,63.46
2018-08-31T17:11:10.287Z,63.29
2018-08-31T17:13:38.885Z,64.93
2018-08-31T17:16:07.494Z,65.19
2018-08-31T17:18:36.074Z,65.65
2018-08-31T17:21:04.883Z,66.46
2018-08-31T17:23:33.522Z,66.86
2018-08-31T17:26:02.118Z,67.71
2018-08-31T17:28:36.021Z,67.70
2018-08-31T17:31:09.964Z,68.24
2018-08-31T17:33:43.805Z,68.93
2018-08-31T17:36:17.548Z,68.69
2018-08-31T17:38:46.161Z,69.24
2018-08-31T17:41:14.765Z,69.89
2018-08-31T17:43:43.353Z,69.76
2018-08-31T17:46:12.016Z,70.58
2018-08-31T17:48:40.631Z,70.68
2018-08-31T17:51:09.217Z,70.61
2018-08-31T17:53:37.806Z,71.10
2018-08-31T17:56:06.487Z,71.22
2018-08-31T17:58:35.129Z,72.58
2018-08-31T18:01:03.732Z,73.02
2018-08-31T18:03:32.332Z,73.49
2018-08-31T18:06:00.931Z,74.24
2018-08-31T18:08:29.522Z,74.63
2018-08-31T18:10:58.150Z,75.30
2018-08-31T18:13:26.715Z,75.84
2018-08-31T18:15:55.453Z,76.25
2018-08-31T18:18:24.009Z,76.62
2018-08-31T18:20:52.607Z,77.14
2018-08-31T18:23:21.193Z,77.32
2018-08-31T18:25:49.845Z,77.41
2018-08-31T18:28:18.387Z,77.87
2018-08-31T18:30:46.984Z,77.82
2018-08-31T18:33:15.546Z,77.95
2018-08-31T18:35:44.146Z,78.21
2018-08-31T18:38:12.722Z,78.73
2018-08-31T18:40:41.310Z,79.28
2018-08-31T18:43:09.883Z,80.24
2018-08-31T18:45:38.464Z,80.71
2018-08-31T18:48:07.054Z,81.29
2018-08-31T18:50:35.639Z,81.86
2018-08-31T18:53:04.223Z,82.01
2018-08-31T18:55:32.869Z,82.51
2018-08-31T18:58:01.566Z,83.13
2018-08-31T19:00:30.114Z,83.18
2018-08-31T19:02:58.713Z,83.51
2018-08-31T19:05:27.297Z,83.72
2018-08-31T19:07:55.862Z,84.18
2018-08-31T19:10:24.442Z,84.44
2018-08-31T19:12:53.077Z,84.44
2018-08-31T19:15:21.648Z,84.75
2018-08-31T19:17:50.230Z,84.96
2018-08-31T19:20:18.819Z,85.33
2018-08-31T19:22:47.438Z,85.53
2018-08-31T19:25:16.087Z,85.86
2018-08-31T19:27:44.669Z,85.72
2018-08-31T19:30:13.260Z,85.96
2018-08-31T19:32:41.834Z,86.38
2018-08-31T19:35:10.461Z,86.50
2018-08-31T19:37:39.020Z,86.32
2018-08-31T19:40:07.621Z,86.72
2018-08-31T19:42:36.207Z,86.89
2018-08-31T19:45:05.078Z,87.02
2018-08-31T19:47:33.633Z,87.18
2018-08-31T19:50:02.253Z,87.50
2018-08-31T19:52:30.826Z,87.41
2018-08-31T19:54:59.693Z,87.28
2018-08-31T19:57:28.252Z,86.90
2018-08-31T19:59:56.828Z,87.03
2018-08-31T20:02:25.481Z,87.10
2018-08-31T20:04:54.049Z,87.44
2018-08-31T20:07:22.696Z,87.91
2018-08-31T20:09:51.719Z,87.83
2018-08-31T20:12:20.759Z,87.95
2018-08-31T20:14:49.782Z,88.51
2018-08-31T20:17:18.827Z,88.92
2018-08-31T20:19:48.041Z,89.28
2018-08-31T20:22:17.124Z,89.54
2018-08-31T20:24:46.339Z,89.72
2018-08-31T20:27:15.250Z,89.63
2018-08-31T20:29:44.472Z,89.28
2018-08-31T20:32:13.423Z,89.72
2018-08-31T20:34:42.560Z,89.80
2018-08-31T20:37:11.733Z,90.02
2018-08-31T20:39:40.605Z,90.37
2018-08-31T20:42:09.688Z,90.63
2018-08-31T20:44:38.650Z,90.72
2018-08-31T20:47:07.836Z,91.01
2018-08-31T20:49:36.741Z,91.12
2018-08-31T20:52:06.030Z,91.02
2018-08-31T20:54:34.974Z,91.29
2018-08-31T20:57:04.430Z,91.18
2018-08-31T20:59:33.282Z,91.37
2018-08-31T21:02:02.086Z,91.56
2018-08-31T21:04:31.177Z,91.89
2018-08-31T21:07:00.279Z,92.10
2018-08-31T21:09:29.374Z,92.47
2018-08-31T21:11:57.966Z,92.87
2018-08-31T21:14:26.554Z,93.56
2018-08-31T21:16:55.173Z,94.01
2018-08-31T21:19:23.743Z,94.35
2018-08-31T21:21:52.336Z,94.50
2018-08-31T21:24:20.936Z,94.80
2018-08-31T21:26:49.546Z,94.92
2018-08-31T21:29:18.121Z,95.05
2018-08-31T21:31:46.712Z,94.84
2018-08-31T21:34:15.273Z,94.88
2018-08-31T21:36:43.868Z,94.99
2018-08-31T21:39:12.450Z,95.14
2018-08-31T21:41:41.063Z,95.27
2018-08-31T21:44:09.661Z,95.62
2018-08-31T21:46:38.286Z,95.76
2018-08-31T21:49:06.876Z,95.68
2018-08-31T21:51:35.483Z,96.00
2018-08-31T21:54:04.072Z,95.84
2018-08-31T21:56:32.681Z,95.99
2018-08-31T21:59:01.282Z,95.69
2018-08-31T22:01:35.148Z,95.44
2018-08-31T22:04:03.777Z,95.45
2018-08-31T22:06:32.389Z,95.24
2018-08-31T22:09:00.971Z,95.86
2018-08-31T22:11:29.534Z,95.92
2018-08-31T22:13:58.171Z,95.97
2018-08-31T22:16:26.785Z,96.02
2018-08-31T22:18:55.412Z,95.98
2018-08-31T22:21:24.015Z,96.00
2018-08-31T22:23:52.632Z,95.78
2018-08-31T22:26:21.201Z,95.87
2018-08-31T22:28:49.782Z,96.17
2018-08-31T22:31:18.377Z,96.70
2018-08-31T22:33:46.998Z,96.56
2018-08-31T22:36:15.596Z,96.52
2018-08-31T22:38:44.184Z,96.62
2018-08-31T22:41:12.783Z,96.64
2018-08-31T22:43:46.532Z,96.42
2018-08-31T22:46:15.106Z,96.69
2018-08-31T22:48:43.704Z,96.55
2018-08-31T22:51:12.280Z,96.91
2018-08-31T22:53:40.884Z,97.01
2018-08-31T22:56:09.466Z,96.77
2018-08-31T22:58:38.119Z,96.59
2018-08-31T23:01:06.760Z,96.37
2018-08-31T23:03:35.369Z,96.04
2018-08-31T23:06:03.967Z,96.22
2018-08-31T23:08:32.560Z,96.40
2018-08-31T23:11:01.136Z,96.43
2018-08-31T23:13:29.753Z,96.79
2018-08-31T23:15:58.473Z,97.03
2018-08-31T23:18:27.097Z,97.23
2018-08-31T23:20:55.685Z,97.34
2018-08-31T23:23:33.275Z,97.76
2018-08-31T23:26:01.910Z,97.91
2018-08-31T23:28:30.488Z,98.14
2018-08-31T23:30:59.059Z,98.24
2018-08-31T23:33:27.709Z,98.45
2018-08-31T23:35:56.305Z,98.12
2018-08-31T23:38:24.932Z,98.24
2018-08-31T23:40:53.524Z,98.04
2018-08-31T23:43:22.133Z,97.94
2018-08-31T23:45:50.719Z,97.72
2018-08-31T23:48:19.785Z,97.88
2018-08-31T23:50:48.555Z,97.75
2018-08-31T23:53:17.159Z,97.83
2018-08-31T23:55:45.770Z,97.98
2018-08-31T23:58:14.393Z,97.79
